TimeEST,TemperatureF,Dew PointF,Humidity,Sea Level PressureIn,VisibilityMPH,Wind Direction,Wind SpeedMPH,Gust SpeedMPH,PrecipitationIn,Events,Conditions,WindDirDegrees,DateUTC
12:15 AM,35.6,33.8,93,29.45,10.0,West,3.5,-,N/A,,Overcast,260,2013-03-04 05:15:00
12:35 AM,35.6,33.8,93,29.45,10.0,West,4.6,-,N/A,,Overcast,270,2013-03-04 05:35:00
12:55 AM,35.6,33.8,93,29.45,10.0,West,4.6,-,N/A,,Overcast,280,2013-03-04 05:55:00
1:15 AM,35.6,33.8,93,29.46,10.0,WNW,4.6,-,N/A,,Overcast,300,2013-03-04 06:15:00
1:35 AM,35.6,33.8,93,29.45,10.0,WNW,8.1,-,N/A,,Overcast,290,2013-03-04 06:35:00
1:55 AM,35.6,33.8,93,29.45,10.0,WNW,5.8,-,N/A,,Overcast,290,2013-03-04 06:55:00
2:15 AM,35.6,33.8,93,29.45,10.0,WNW,5.8,-,N/A,,Overcast,300,2013-03-04 07:15:00
2:35 AM,35.6,32.0,87,29.45,10.0,WNW,5.8,-,N/A,,Overcast,300,2013-03-04 07:35:00
2:55 AM,35.6,32.0,87,29.44,10.0,WNW,6.9,-,N/A,,Overcast,300,2013-03-04 07:55:00
3:15 AM,33.8,32.0,93,29.44,10.0,NW,6.9,-,N/A,,Overcast,310,2013-03-04 08:15:00
3:35 AM,33.8,32.0,93,29.44,10.0,WNW,9.2,-,N/A,,Overcast,300,2013-03-04 08:35:00
3:55 AM,33.8,32.0,93,29.44,10.0,WNW,3.5,-,N/A,,Overcast,300,2013-03-04 08:55:00
4:15 AM,33.8,32.0,93,29.44,10.0,WNW,6.9,-,N/A,,Overcast,300,2013-03-04 09:15:00
4:35 AM,33.8,32.0,93,29.44,10.0,NW,8.1,-,N/A,,Overcast,310,2013-03-04 09:35:00
4:55 AM,33.8,32.0,93,29.44,5.0,WNW,6.9,-,N/A,,Overcast,300,2013-03-04 09:55:00
5:15 AM,33.8,32.0,93,29.44,4.0,WNW,6.9,-,N/A,,Overcast,300,2013-03-04 10:15:00
5:35 AM,33.8,30.2,87,29.44,4.0,NW,5.8,-,N/A,,Overcast,310,2013-03-04 10:35:00
5:55 AM,32.0,30.2,93,29.44,5.0,NW,4.6,-,N/A,,Overcast,310,2013-03-04 10:55:00
6:15 AM,32.0,30.2,93,29.44,7.0,NW,8.1,-,N/A,,Mostly Cloudy,320,2013-03-04 11:15:00
6:35 AM,32.0,30.2,93,29.44,10.0,NW,6.9,-,N/A,,Mostly Cloudy,320,2013-03-04 11:35:00
7:15 AM,32.0,30.2,93,29.45,9.0,NW,6.9,-,N/A,,Overcast,320,2013-03-04 12:15:00
7:35 AM,33.8,30.2,87,29.44,9.0,WNW,6.9,-,N/A,,Overcast,300,2013-03-04 12:35:00
7:55 AM,33.8,30.2,87,29.44,10.0,NW,6.9,-,N/A,,Overcast,310,2013-03-04 12:55:00
8:15 AM,33.8,30.2,87,29.44,10.0,NW,4.6,-,N/A,,Overcast,310,2013-03-04 13:15:00
8:35 AM,33.8,30.2,87,29.44,3.0,NW,6.9,-,N/A,,Overcast,320,2013-03-04 13:35:00
8:55 AM,33.8,30.2,87,29.44,2.5,WNW,6.9,-,N/A,,Overcast,300,2013-03-04 13:55:00
9:15 AM,33.8,30.2,87,29.44,1.5,WNW,5.8,-,N/A,,Overcast,300,2013-03-04 14:15:00
9:35 AM,33.8,30.2,87,29.43,1.5,NW,5.8,-,N/A,,Overcast,310,2013-03-04 14:35:00
9:55 AM,33.8,30.2,87,29.43,1.0,WNW,6.9,-,N/A,,Overcast,300,2013-03-04 14:55:00
10:15 AM,33.8,30.2,87,29.43,1.2,WNW,6.9,-,N/A,,Overcast,300,2013-03-04 15:15:00
10:35 AM,33.8,32.0,93,29.43,1.5,WNW,8.1,-,N/A,,Overcast,290,2013-03-04 15:35:00
10:55 AM,33.8,32.0,93,29.42,1.2,WNW,8.1,17.3,0.01,,Overcast,290,2013-03-04 15:55:00
11:15 AM,35.6,33.8,93,29.42,2.0,NW,9.2,-,N/A,,Overcast,310,2013-03-04 16:15:00
11:35 AM,35.6,33.8,93,29.42,5.0,NW,6.9,-,N/A,,Overcast,310,2013-03-04 16:35:00
11:55 AM,35.6,32.0,87,29.42,3.0,NW,10.4,17.3,N/A,,Overcast,320,2013-03-04 16:55:00
12:15 PM,33.8,32.0,93,29.41,1.5,NW,8.1,-,N/A,,Overcast,310,2013-03-04 17:15:00
12:35 PM,33.8,32.0,93,29.41,2.0,NW,5.8,18.4,N/A,,Overcast,310,2013-03-04 17:35:00
12:55 PM,33.8,33.8,100,29.41,1.5,NW,9.2,16.1,N/A,,Overcast,310,2013-03-04 17:55:00
1:15 PM,33.8,33.8,100,29.41,2.0,NW,9.2,-,N/A,,Overcast,310,2013-03-04 18:15:00
1:55 PM,33.8,33.8,100,29.41,1.8,WNW,4.6,-,0.01,,Overcast,300,2013-03-04 18:55:00
2:15 PM,33.8,33.8,100,29.41,1.8,NW,6.9,-,N/A,,Overcast,310,2013-03-04 19:15:00
2:35 PM,33.8,33.8,100,29.42,2.5,WNW,5.8,-,N/A,,Overcast,300,2013-03-04 19:35:00
2:55 PM,35.6,35.6,100,29.42,10.0,NNW,6.9,-,N/A,,Overcast,340,2013-03-04 19:55:00
3:15 PM,35.6,35.6,100,29.43,10.0,North,8.1,-,N/A,,Overcast,360,2013-03-04 20:15:00
3:35 PM,35.6,33.8,93,29.43,9.0,North,6.9,-,N/A,,Overcast,10,2013-03-04 20:35:00
3:55 PM,37.4,35.6,93,29.44,10.0,North,4.6,-,N/A,,Overcast,10,2013-03-04 20:55:00
4:15 PM,35.6,33.8,93,29.44,4.0,North,5.8,-,0.02,,Overcast,360,2013-03-04 21:15:00
4:35 PM,35.6,33.8,93,29.45,10.0,North,8.1,-,0.02,,Overcast,10,2013-03-04 21:35:00
4:55 PM,35.6,33.8,93,29.46,9.0,North,4.6,-,0.02,,Overcast,360,2013-03-04 21:55:00
5:15 PM,35.6,33.8,93,29.47,7.0,NNW,5.8,-,0.01,,Overcast,340,2013-03-04 22:15:00
5:35 PM,35.6,33.8,93,29.47,4.0,NNW,6.9,-,0.01,,Overcast,340,2013-03-04 22:35:00
5:56 PM,33.8,33.8,100,29.48,5.0,North,8.1,-,N/A,,Overcast,360,2013-03-04 22:56:00
6:15 PM,33.8,33.8,100,29.49,5.0,North,6.9,-,N/A,,Overcast,360,2013-03-04 23:15:00
6:35 PM,33.8,33.8,100,29.50,4.0,North,8.1,-,N/A,,Overcast,360,2013-03-04 23:35:00
6:55 PM,33.8,33.8,100,29.50,2.0,North,6.9,-,N/A,,Overcast,360,2013-03-04 23:55:00
7:15 PM,33.8,33.8,100,29.51,2.0,North,8.1,-,N/A,,Overcast,360,2013-03-05 00:15:00
7:35 PM,33.8,33.8,100,29.52,1.5,North,6.9,-,N/A,,Overcast,360,2013-03-05 00:35:00
7:55 PM,33.8,33.8,100,29.53,2.5,North,8.1,-,0.03,,Overcast,360,2013-03-05 00:55:00
8:15 PM,33.8,33.8,100,29.54,3.0,North,10.4,-,N/A,,Overcast,10,2013-03-05 01:15:00
8:35 PM,33.8,32.0,93,29.55,5.0,North,9.2,-,N/A,,Overcast,360,2013-03-05 01:35:00
9:35 PM,33.8,32.0,93,29.57,10.0,North,11.5,-,N/A,,Overcast,360,2013-03-05 02:35:00
9:55 PM,33.8,32.0,93,29.58,5.0,North,11.5,17.3,N/A,,Overcast,360,2013-03-05 02:55:00
10:15 PM,33.8,32.0,93,29.59,9.0,North,10.4,19.6,N/A,,Overcast,360,2013-03-05 03:15:00
10:35 PM,33.8,32.0,93,29.59,5.0,North,9.2,-,N/A,,Overcast,360,2013-03-05 03:35:00
10:55 PM,33.8,32.0,93,29.60,5.0,North,10.4,-,0.01,,Overcast,360,2013-03-05 03:55:00
11:15 PM,33.8,32.0,93,29.61,10.0,North,9.2,-,N/A,,Overcast,360,2013-03-05 04:15:00
11:35 PM,33.8,32.0,93,29.62,7.0,North,10.4,-,N/A,,Overcast,360,2013-03-05 04:35:00
11:55 PM,33.8,32.0,93,29.63,5.0,North,10.4,-,N/A,,Overcast,360,2013-03-05 04:55:00